Time;durP1;ratioP1;P1;durP2;ratioP2;P2;SDS_P1;SDS_P2;PMS_P1;PMS_P2;Temp;Humidity;BMP_temperature;BMP_pressure;BME280_temperature;BME280_humidity;BME280_pressure;Samples;Min_cycle;Max_cycle;Signal;HPM_P1;HPM_P2
2024/01/22 00:02:04;;;;;;;1.17;0.75;;;;;;;17.57;42.72;97384.50;10366294;28;20033;-34
2024/01/22 00:07:05;;;;;;;2.65;1.30;;;;;;;17.57;42.15;97371.84;10367056;28;20103;-36
2024/01/22 00:12:06;;;;;;;1.83;0.70;;;;;;;17.56;42.84;97375.22;10365822;28;20529;-38
2024/01/22 00:17:06;;;;;;;1.08;0.60;;;;;;;17.55;42.75;97359.16;10365377;28;20037;-36
2024/01/22 00:22:06;;;;;;;4.10;0.97;;;;;;;17.55;42.21;97348.16;10364780;28;20045;-35
2024/01/22 00:27:07;;;;;;;1.47;1.23;;;;;;;17.57;42.23;97341.47;10366351;28;20052;-36
2024/01/22 00:32:07;;;;;;;2.65;0.88;;;;;;;17.59;42.31;97334.75;10364552;28;20038;-35
2024/01/22 00:37:08;;;;;;;1.53;0.80;;;;;;;17.58;42.04;97327.97;10365133;28;20731;-33
2024/01/22 00:42:08;;;;;;;2.55;0.90;;;;;;;17.57;42.32;97306.03;10364096;28;20299;-34
2024/01/22 00:47:08;;;;;;;2.10;0.90;;;;;;;17.56;42.58;97279.00;10363983;28;20125;-35
2024/01/22 00:52:09;;;;;;;1.63;0.80;;;;;;;17.58;42.25;97260.44;10364551;28;20391;-33
2024/01/22 00:57:09;;;;;;;1.90;0.70;;;;;;;17.56;42.50;97253.69;10364028;28;20077;-35
2024/01/22 01:02:09;;;;;;;2.60;0.80;;;;;;;17.58;42.35;97236.84;10363146;28;20293;-34
2024/01/22 01:07:10;;;;;;;3.40;1.33;;;;;;;17.54;42.59;97237.63;10364635;28;20048;-35
2024/01/22 01:12:10;;;;;;;2.67;0.70;;;;;;;17.56;42.75;97228.38;10362846;28;20125;-34
2024/01/22 01:17:10;;;;;;;1.00;0.73;;;;;;;17.56;42.58;97228.38;10363145;28;20044;-37
2024/01/22 01:22:11;;;;;;;2.07;0.63;;;;;;;17.53;42.69;97230.84;10362318;28;20034;-33
2024/01/22 01:27:12;;;;;;;2.40;0.93;;;;;;;17.53;42.76;97213.13;10364161;28;20284;-34
2024/01/22 01:32:12;;;;;;;3.53;0.63;;;;;;;17.54;42.68;97204.69;10362263;28;20037;-33
2024/01/22 01:37:13;;;;;;;0.87;0.67;;;;;;;17.55;42.77;97211.47;10362672;28;20037;-36
2024/01/22 01:42:13;;;;;;;2.40;0.70;;;;;;;17.54;42.72;97217.34;10363028;28;20038;-36
2024/01/22 01:47:14;;;;;;;1.60;0.70;;;;;;;17.53;42.60;97238.44;10362294;28;20456;-36
2024/01/22 01:52:15;;;;;;;1.42;0.70;;;;;;;17.51;42.66;97230.81;10361725;28;20034;-32
2024/01/22 01:57:17;;;;;;;1.25;0.50;;;;;;;17.52;43.06;97234.22;10362977;28;20041;-34
2024/01/22 02:02:17;;;;;;;1.40;0.95;;;;;;;17.52;42.52;97219.03;10361350;28;20045;-39
2024/01/22 02:07:17;;;;;;;2.13;0.80;;;;;;;17.51;42.68;97217.34;10361680;28;20490;-34
2024/01/22 02:12:18;;;;;;;1.23;0.57;;;;;;;17.52;42.69;97214.84;10360589;28;20516;-35
2024/01/22 02:17:19;;;;;;;1.40;0.73;;;;;;;17.52;42.74;97206.38;10361196;28;20296;-34
2024/01/22 02:22:19;;;;;;;3.23;0.83;;;;;;;17.53;42.62;97203.00;10359004;28;20490;-38
2024/01/22 02:27:20;;;;;;;0.87;0.70;;;;;;;17.55;42.67;97214.00;10361102;28;20540;-35
2024/01/22 02:32:20;;;;;;;0.75;0.60;;;;;;;17.54;42.88;97219.88;10361076;28;20037;-37
2024/01/22 02:37:21;;;;;;;1.57;1.00;;;;;;;17.53;42.67;97206.41;10360404;28;20036;-36
2024/01/22 02:42:21;;;;;;;1.43;0.60;;;;;;;17.55;42.59;97206.41;10361438;28;20042;-35
2024/01/22 02:47:21;;;;;;;1.73;0.70;;;;;;;17.50;42.59;97182.72;10361038;28;20033;-36
2024/01/22 02:52:22;;;;;;;1.23;0.70;;;;;;;17.54;42.46;97195.44;10360149;28;20405;-36
2024/01/22 02:57:22;;;;;;;0.50;0.40;;;;;;;17.52;42.61;97181.91;10357360;28;20293;-34
2024/01/22 03:02:22;;;;;;;3.00;0.67;;;;;;;17.52;42.30;97186.13;10359468;28;20096;-34
2024/01/22 03:07:23;;;;;;;0.67;0.60;;;;;;;17.51;42.84;97182.72;10360242;28;20034;-36
2024/01/22 03:12:23;;;;;;;1.57;0.60;;;;;;;17.50;43.22;97177.66;10358868;28;20107;-36
2024/01/22 03:17:24;;;;;;;0.77;0.50;;;;;;;17.44;42.80;97172.53;10364962;28;20669;-35
2024/01/22 03:22:24;;;;;;;1.27;0.60;;;;;;;17.48;42.73;97169.22;10367408;28;20036;-35
2024/01/22 03:27:24;;;;;;;0.80;0.50;;;;;;;17.48;42.88;97176.81;10367637;28;20048;-35
2024/01/22 03:32:27;;;;;;;0.83;0.60;;;;;;;17.49;42.83;97181.03;10367716;28;20038;-34
2024/01/22 03:37:27;;;;;;;1.63;0.70;;;;;;;17.50;42.32;97158.25;10366681;28;20046;-38
2024/01/22 03:42:28;;;;;;;2.30;1.00;;;;;;;17.52;42.74;97176.00;10366758;28;20033;-37
2024/01/22 03:47:28;;;;;;;0.93;0.47;;;;;;;17.52;42.57;97138.03;10367186;28;20980;-38
2024/01/22 03:52:29;;;;;;;0.60;0.60;;;;;;;17.52;42.59;97149.00;10366219;28;20301;-36
2024/01/22 03:57:29;;;;;;;2.70;0.70;;;;;;;17.52;42.73;97153.22;10365829;28;20041;-33
2024/01/22 04:02:33;;;;;;;0.60;0.50;;;;;;;17.49;42.70;97125.34;10365903;28;20354;-38
2024/01/22 04:07:33;;;;;;;1.05;0.68;;;;;;;17.50;42.87;97137.16;10366928;28;20087;-37
2024/01/22 04:12:34;;;;;;;0.87;0.57;;;;;;;17.49;43.03;97138.00;10365337;28;20030;-35
2024/01/22 04:17:34;;;;;;;1.35;0.55;;;;;;;17.49;43.07;97155.72;10365780;28;20489;-36
2024/01/22 04:22:35;;;;;;;0.73;0.70;;;;;;;17.50;42.67;97162.47;10365607;28;20038;-38
2024/01/22 04:27:36;;;;;;;0.97;0.60;;;;;;;17.49;43.22;97151.50;10363914;28;20034;-35
2024/01/22 04:32:36;;;;;;;0.70;0.70;;;;;;;17.48;42.77;97148.97;10363239;28;20108;-37
2024/01/22 04:37:36;;;;;;;1.03;0.73;;;;;;;17.47;42.32;97162.44;10364331;28;20112;-37
2024/01/22 04:42:37;;;;;;;1.10;0.60;;;;;;;17.47;42.74;97152.31;10363938;28;20034;-36
2024/01/22 04:47:37;;;;;;;2.53;0.40;;;;;;;17.52;42.06;97145.63;10364325;28;20037;-36
2024/01/22 04:52:38;;;;;;;0.95;0.50;;;;;;;17.54;42.42;97138.88;10358316;28;20387;-36
2024/01/22 04:57:38;;;;;;;0.87;0.40;;;;;;;17.55;42.12;97135.50;10362849;28;20034;-36
2024/01/22 05:02:40;;;;;;;1.33;0.50;;;;;;;17.55;42.37;97125.38;10363783;28;20293;-35
2024/01/22 05:07:40;;;;;;;1.05;0.60;;;;;;;17.59;41.87;97127.13;10362427;28;20034;-35
2024/01/22 05:12:41;;;;;;;1.85;0.60;;;;;;;17.60;42.69;97133.88;10362362;28;20033;-37
2024/01/22 05:17:42;;;;;;;4.43;0.63;;;;;;;17.60;42.32;97103.50;10363853;28;20034;-37
2024/01/22 05:22:44;;;;;;;1.60;0.68;;;;;;;17.62;42.94;97122.09;10361477;28;20048;-34
2024/01/22 05:27:46;;;;;;;3.00;0.95;;;;;;;17.66;43.46;97128.88;10362341;28;20125;-35
2024/01/22 05:32:46;;;;;;;1.40;0.60;;;;;;;17.63;43.32;97121.25;10362906;28;20033;-36
2024/01/22 05:37:49;;;;;;;2.93;0.77;;;;;;;17.67;42.90;97100.19;10362058;28;20033;-39
2024/01/22 05:42:49;;;;;;;1.70;0.70;;;;;;;17.72;43.84;97123.84;10360462;28;20033;-35
2024/01/22 05:47:50;;;;;;;4.23;0.80;;;;;;;17.69;43.80;97104.44;10353461;28;20042;-38
2024/01/22 05:52:50;;;;;;;2.40;0.50;;;;;;;17.71;43.21;97122.16;10350504;28;20448;-36
2024/01/22 05:57:51;;;;;;;1.58;0.90;;;;;;;17.76;42.61;97118.00;10356062;28;20661;-33
2024/01/22 06:02:51;;;;;;;0.97;0.43;;;;;;;17.81;42.34;97098.63;10357129;28;20033;-35
2024/01/22 06:07:51;;;;;;;2.53;0.70;;;;;;;17.81;42.92;97103.69;10359598;28;20056;-36
2024/01/22 06:12:52;;;;;;;3.50;0.63;;;;;;;17.79;43.08;97103.69;10360050;28;20033;-34
2024/01/22 06:17:53;;;;;;;1.40;0.50;;;;;;;17.78;42.67;97098.59;10361618;28;20089;-36
2024/01/22 06:22:53;;;;;;;2.67;0.60;;;;;;;17.80;42.52;97125.66;10360294;28;20136;-36
2024/01/22 06:27:56;;;;;;;4.77;0.87;;;;;;;17.63;41.72;97128.84;10360955;28;20037;-35
2024/01/22 06:32:56;;;;;;;6.57;0.80;;;;;;;17.64;42.76;97120.41;10361111;28;20038;-33
2024/01/22 06:37:57;;;;;;;3.70;0.80;;;;;;;17.68;42.64;97119.63;10359581;28;20038;-35
2024/01/22 06:42:57;;;;;;;4.53;0.60;;;;;;;17.68;42.65;97117.91;10360652;28;20033;-36
2024/01/22 06:47:58;;;;;;;5.10;1.57;;;;;;;17.70;42.45;97117.94;10361583;28;20887;-38
2024/01/22 06:52:58;;;;;;;1.03;0.83;;;;;;;17.72;42.26;97118.78;10366056;28;20038;-36
2024/01/22 06:57:58;;;;;;;2.38;0.77;;;;;;;17.70;42.53;97090.09;10368380;28;20042;-34
2024/01/22 07:02:59;;;;;;;1.10;0.80;;;;;;;17.69;42.82;97104.44;10369044;28;20041;-38
2024/01/22 07:07:59;;;;;;;1.60;0.60;;;;;;;17.69;42.33;97086.72;10368038;28;20052;-33
2024/01/22 07:12:59;;;;;;;3.23;0.50;;;;;;;17.69;42.32;97093.47;10367797;28;20084;-37
2024/01/22 07:18:00;;;;;;;5.27;0.63;;;;;;;17.69;42.14;97106.13;10368521;28;20320;-38
2024/01/22 07:23:00;;;;;;;4.47;2.30;;;;;;;17.67;41.52;97101.03;10367350;28;20037;-34
2024/01/22 07:28:00;;;;;;;4.00;0.70;;;;;;;17.60;41.58;97098.44;10367464;28;20041;-34
2024/01/22 07:33:01;;;;;;;1.27;0.53;;;;;;;17.64;42.17;97118.75;10367881;28;20772;-36
2024/01/22 07:38:01;;;;;;;3.80;0.60;;;;;;;17.65;41.31;97081.63;10367214;28;20505;-34
2024/01/22 07:43:02;;;;;;;2.43;0.40;;;;;;;17.65;42.25;97086.69;10366373;28;20104;-36
2024/01/22 07:48:02;;;;;;;1.00;0.63;;;;;;;17.70;42.19;97085.03;10367745;28;20038;-34
2024/01/22 07:53:03;;;;;;;0.93;0.40;;;;;;;17.59;42.93;97049.47;10366291;28;20103;-37
2024/01/22 07:58:07;;;;;;;2.40;0.60;;;;;;;17.70;43.17;97063.09;10366594;28;20041;-40
2024/01/22 08:03:08;;;;;;;1.05;0.40;;;;;;;17.72;42.41;97078.28;10364823;28;20034;-38
2024/01/22 08:08:11;;;;;;;2.03;0.57;;;;;;;17.70;42.02;97064.75;10365730;28;20769;-35
2024/01/22 08:13:12;;;;;;;1.45;0.43;;;;;;;17.69;42.09;97053.81;10365675;28;20037;-33
2024/01/22 08:18:13;;;;;;;0.77;0.30;;;;;;;17.69;41.77;97037.75;10366362;28;20608;-35
2024/01/22 08:23:14;;;;;;;1.60;0.50;;;;;;;17.66;41.67;97037.75;10365196;28;20034;-34
2024/01/22 08:28:15;;;;;;;0.50;0.40;;;;;;;17.67;41.66;97030.13;10365042;28;20030;-38
2024/01/22 08:33:15;;;;;;;0.68;0.50;;;;;;;17.67;41.79;97024.25;10365491;28;20026;-35
2024/01/22 08:38:16;;;;;;;1.75;0.60;;;;;;;17.68;41.65;97010.75;10365236;28;20034;-37
2024/01/22 08:43:16;;;;;;;2.23;0.60;;;;;;;17.68;41.78;96980.34;10364333;28;20044;-38
2024/01/22 08:48:17;;;;;;;2.00;0.77;;;;;;;17.68;42.15;97000.63;10365124;28;20113;-36
2024/01/22 08:53:20;;;;;;;0.93;0.70;;;;;;;17.69;41.87;97002.31;10363677;28;20037;-37
2024/01/22 08:58:21;;;;;;;0.80;0.30;;;;;;;17.67;41.72;97009.03;10362737;28;20033;-35
2024/01/22 09:03:24;;;;;;;0.33;0.33;;;;;;;17.68;41.70;97010.75;10364601;28;20405;-37
2024/01/22 09:08:24;;;;;;;1.42;0.50;;;;;;;17.66;41.51;96998.06;10363844;28;20030;-34
2024/01/22 09:13:25;;;;;;;0.60;0.30;;;;;;;17.66;41.65;97013.25;10362590;28;20048;-35
2024/01/22 09:18:26;;;;;;;1.10;0.40;;;;;;;17.62;41.44;96998.03;10364354;28;20118;-35
2024/01/22 09:23:26;;;;;;;2.10;0.40;;;;;;;17.63;41.46;96990.44;10363184;28;20049;-35
2024/01/22 09:28:30;;;;;;;0.60;0.53;;;;;;;17.63;41.67;96992.13;10362759;28;20117;-37
2024/01/22 09:33:30;;;;;;;1.00;0.40;;;;;;;17.62;41.04;96967.63;10363318;28;20041;-36
2024/01/22 09:38:31;;;;;;;0.57;0.40;;;;;;;17.60;41.48;96969.31;10363140;28;20547;-39
2024/01/22 09:43:32;;;;;;;0.40;0.37;;;;;;;17.60;40.94;96971.84;10361653;28;20288;-34
2024/01/22 09:48:35;;;;;;;0.40;0.35;;;;;;;17.59;40.90;96960.88;10362905;28;20061;-34
2024/01/22 09:53:37;;;;;;;0.50;0.20;;;;;;;17.59;40.72;96972.69;10362264;28;20528;-37
2024/01/22 09:58:43;;;;;;;0.45;0.32;;;;;;;17.59;41.14;96965.09;10361401;28;20530;-35
2024/01/22 10:03:44;;;;;;;1.38;0.38;;;;;;;17.54;40.60;96951.53;10362796;28;20120;-36
2024/01/22 10:08:44;;;;;;;1.08;0.30;;;;;;;17.59;41.43;96960.03;10361525;28;20121;-38
2024/01/22 10:13:50;;;;;;;0.67;0.30;;;;;;;17.60;40.56;96951.59;10361073;28;20026;-35
2024/01/22 10:19:06;;;;;;;0.50;0.47;;;;;;;17.59;41.21;96932.19;10362337;28;20285;-36
2024/01/22 10:24:08;;;;;;;0.40;0.20;;;;;;;17.59;40.83;96927.13;10359262;28;21107;-38
2024/01/22 10:29:21;;;;;;;0.45;0.25;;;;;;;17.59;41.12;96924.59;10360424;28;20034;-37
2024/01/22 10:34:28;;;;;;;0.70;0.20;;;;;;;17.58;40.41;96903.47;10356705;28;20092;-38
2024/01/22 10:39:28;;;;;;;0.73;0.40;;;;;;;17.57;40.97;96895.91;10360807;28;20755;-37
2024/01/22 10:44:29;;;;;;;0.53;0.40;;;;;;;17.57;40.41;96870.59;10359702;28;20048;-36
2024/01/22 10:49:30;;;;;;;0.52;0.20;;;;;;;17.58;40.57;96877.34;10361357;28;20092;-35
2024/01/22 10:54:33;;;;;;;0.40;0.30;;;;;;;17.57;40.17;96894.19;10360253;28;20033;-35
2024/01/22 10:59:41;;;;;;;0.32;0.20;;;;;;;17.57;40.68;96908.56;10360176;28;20021;-36
2024/01/22 11:04:46;;;;;;;0.60;0.25;;;;;;;17.55;40.21;96870.56;10361087;28;20033;-38
2024/01/22 11:09:50;;;;;;;0.40;0.40;;;;;;;17.53;40.04;96849.47;10360218;28;20037;-38
2024/01/22 11:14:50;;;;;;;0.50;0.30;;;;;;;17.54;40.72;96832.56;10359573;28;20091;-38
2024/01/22 11:20:13;;;;;;;0.23;0.20;;;;;;;17.57;41.46;96856.22;10360177;28;20456;-35
2024/01/22 11:25:14;;;;;;;0.70;0.40;;;;;;;17.60;41.71;96848.66;10360072;28;20320;-38
2024/01/22 11:30:36;;;;;;;0.22;0.22;;;;;;;17.67;42.13;96852.06;10359827;28;20041;-38
2024/01/22 11:35:41;;;;;;;2.33;0.30;;;;;;;17.68;43.03;96848.69;10360523;28;20030;-37
2024/01/22 11:40:53;;;;;;;1.08;0.40;;;;;;;17.66;43.62;96860.50;10366846;28;20036;-38
2024/01/22 11:45:56;;;;;;;2.53;0.35;;;;;;;17.66;43.52;96888.34;10366981;28;20794;-38
2024/01/22 11:51:07;;;;;;;2.55;0.40;;;;;;;17.66;43.68;96884.13;10367192;28;20057;-37
2024/01/22 11:56:08;;;;;;;4.53;0.50;;;;;;;17.69;44.39;96895.97;10364529;28;20419;-37
2024/01/22 12:01:11;;;;;;;1.07;0.30;;;;;;;17.61;44.18;96879.88;10366107;28;20033;-34
2024/01/22 12:06:11;;;;;;;2.92;0.50;;;;;;;17.69;44.28;96894.28;10366152;28;20493;-37
2024/01/22 12:11:13;;;;;;;3.30;0.60;;;;;;;17.68;44.50;96856.28;10366474;28;20041;-38
2024/01/22 12:16:15;;;;;;;1.13;0.57;;;;;;;17.73;44.33;96873.19;10364757;28;20446;-37
2024/01/22 12:21:16;;;;;;;3.78;0.85;;;;;;;17.72;44.69;96858.84;10365568;28;20092;-35
2024/01/22 12:26:22;;;;;;;1.17;0.50;;;;;;;17.78;44.72;96875.75;10366208;28;20038;-39
2024/01/22 12:31:23;;;;;;;3.05;0.40;;;;;;;17.79;44.60;96852.97;10364888;28;20731;-37
2024/01/22 12:36:24;;;;;;;3.23;0.70;;;;;;;17.73;44.69;96847.03;10365166;28;20053;-39
2024/01/22 12:41:25;;;;;;;3.53;0.50;;;;;;;17.75;44.23;96850.41;10365606;28;20413;-35
2024/01/22 12:46:25;;;;;;;3.03;0.47;;;;;;;17.74;44.09;96831.00;10364326;28;20034;-36
2024/01/22 12:51:26;;;;;;;2.65;0.65;;;;;;;17.73;44.98;96825.09;10363105;28;20087;-35
2024/01/22 12:56:26;;;;;;;5.35;0.60;;;;;;;17.72;44.14;96799.75;10363317;28;20037;-34
2024/01/22 13:01:29;;;;;;;0.83;0.30;;;;;;;17.45;44.05;96726.22;10362867;28;20405;-36
2024/01/22 13:06:29;;;;;;;0.80;0.30;;;;;;;17.48;43.59;96723.72;10364750;28;20041;-38
2024/01/22 13:11:30;;;;;;;8.90;1.73;;;;;;;17.62;43.37;96704.34;10363547;28;21352;-32
2024/01/22 13:16:31;;;;;;;3.93;0.60;;;;;;;17.65;43.37;96704.38;10363205;28;20645;-35
2024/01/22 13:21:31;;;;;;;2.67;0.75;;;;;;;17.68;43.76;96732.22;10362858;28;20812;-36
2024/01/22 13:26:32;;;;;;;1.90;0.47;;;;;;;17.69;44.56;96759.22;10358425;28;20042;-36
2024/01/22 13:31:32;;;;;;;2.10;0.53;;;;;;;17.69;43.51;96756.69;10362727;28;20042;-36
2024/01/22 13:36:33;;;;;;;2.30;0.40;;;;;;;17.53;45.13;96732.16;10363466;28;20045;-35
2024/01/22 13:41:34;;;;;;;6.20;0.70;;;;;;;17.49;44.96;96743.13;10362384;28;20044;-35
2024/01/22 13:46:34;;;;;;;5.47;0.98;;;;;;;17.45;44.18;96749.00;10362460;28;20041;-34
2024/01/22 13:51:35;;;;;;;2.20;0.60;;;;;;;17.47;44.70;96739.72;10362399;28;20053;-36
2024/01/22 13:56:38;;;;;;;8.10;0.65;;;;;;;17.47;45.22;96742.25;10362177;28;20034;-38
2024/01/22 14:01:38;;;;;;;2.95;0.57;;;;;;;17.52;43.52;96721.22;10361702;28;20026;-35
2024/01/22 14:06:39;;;;;;;6.63;0.63;;;;;;;17.57;43.09;96699.28;10362284;28;20044;-38
2024/01/22 14:11:39;;;;;;;4.10;0.60;;;;;;;17.65;43.28;96701.84;10361646;28;20303;-34
2024/01/22 14:16:40;;;;;;;2.67;0.60;;;;;;;17.67;43.34;96700.16;10361130;28;20045;-34
2024/01/22 14:21:40;;;;;;;1.27;0.60;;;;;;;17.68;43.45;96717.03;10361274;28;20037;-34
2024/01/22 14:26:40;;;;;;;2.60;0.67;;;;;;;17.70;43.42;96712.81;10362487;28;20299;-38
2024/01/22 14:31:41;;;;;;;2.00;0.27;;;;;;;17.69;43.30;96719.59;10360667;28;20445;-36
2024/01/22 14:36:41;;;;;;;2.13;0.90;;;;;;;17.70;43.41;96695.09;10360530;28;20691;-37
2024/01/22 14:41:42;;;;;;;3.93;0.93;;;;;;;17.65;42.94;96696.78;10360893;28;20048;-36
2024/01/22 14:46:42;;;;;;;2.30;0.50;;;;;;;17.68;42.67;96717.03;10360354;28;20792;-37
2024/01/22 14:51:45;;;;;;;4.63;0.80;;;;;;;17.55;44.69;96712.75;10359296;28;20038;-38
2024/01/22 14:56:45;;;;;;;4.97;0.77;;;;;;;17.60;43.40;96728.81;10361253;28;20367;-34
2024/01/22 15:01:46;;;;;;;6.25;0.70;;;;;;;17.60;44.25;96734.75;10360468;28;20034;-37
2024/01/22 15:06:49;;;;;;;5.20;0.57;;;;;;;17.63;43.15;96723.75;10360154;28;20115;-35
2024/01/22 15:11:50;;;;;;;1.17;0.68;;;;;;;17.60;44.37;96736.41;10362744;28;20030;-37
2024/01/22 15:16:50;;;;;;;2.83;1.00;;;;;;;17.60;45.36;96723.75;10360709;28;20073;-37
2024/01/22 15:21:50;;;;;;;4.80;1.23;;;;;;;17.61;45.32;96731.38;10364738;28;20026;-41
2024/01/22 15:26:51;;;;;;;2.53;0.70;;;;;;;17.60;45.39;96749.94;10363693;28;20287;-36
2024/01/22 15:31:51;;;;;;;5.20;0.90;;;;;;;17.59;45.77;96770.16;10363683;28;20029;-39
2024/01/22 15:36:51;;;;;;;6.37;1.60;;;;;;;17.60;44.08;96771.84;10364332;28;20300;-37
2024/01/22 15:41:53;;;;;;;2.45;1.20;;;;;;;17.54;45.33;96795.47;10360717;28;20490;-37
2024/01/22 15:46:53;;;;;;;3.15;1.20;;;;;;;17.57;44.87;96809.81;10364371;28;20038;-39
2024/01/22 15:51:54;;;;;;;4.73;1.00;;;;;;;17.58;45.78;96816.56;10363892;28;20421;-38
2024/01/22 15:56:54;;;;;;;2.45;1.33;;;;;;;17.61;44.59;96809.84;10365490;28;20026;-38
2024/01/22 16:01:55;;;;;;;2.73;1.90;;;;;;;17.61;44.51;96806.47;10366436;28;20393;-39
2024/01/22 16:06:56;;;;;;;2.30;0.98;;;;;;;17.59;44.98;96823.34;10366277;28;20615;-36
2024/01/22 16:11:56;;;;;;;3.20;0.80;;;;;;;17.54;45.17;96827.50;10367385;28;20104;-37
2024/01/22 16:16:57;;;;;;;5.25;1.20;;;;;;;17.61;45.00;96846.97;10366090;28;20036;-38
2024/01/22 16:21:57;;;;;;;10.90;1.55;;;;;;;17.64;46.17;96863.03;10365146;28;20120;-40
2024/01/22 16:26:58;;;;;;;7.73;1.50;;;;;;;17.67;44.35;96872.31;10354810;28;20536;-37
2024/01/22 16:31:58;;;;;;;7.82;1.40;;;;;;;17.70;44.25;96902.72;10357745;28;20391;-37
2024/01/22 16:37:00;;;;;;;2.65;1.27;;;;;;;17.69;46.51;96923.81;10355408;28;20037;-36
2024/01/22 16:42:01;;;;;;;3.97;1.17;;;;;;;17.63;44.81;96933.88;10355260;28;20034;-39
2024/01/22 16:47:01;;;;;;;4.05;1.15;;;;;;;17.59;45.65;96944.84;10362031;28;20049;-38
2024/01/22 16:52:03;;;;;;;4.38;1.20;;;;;;;17.72;46.77;96961.81;10361425;28;20128;-38
2024/01/22 16:57:04;;;;;;;7.88;3.08;;;;;;;17.76;45.37;96974.50;10357006;28;20109;-39
2024/01/22 17:02:05;;;;;;;6.07;1.48;;;;;;;17.74;47.17;96985.47;10361829;28;20021;-37
2024/01/22 17:07:07;;;;;;;4.05;1.23;;;;;;;17.78;46.70;97002.38;10364267;28;20037;-39
2024/01/22 17:12:07;;;;;;;6.45;1.60;;;;;;;17.75;46.71;97017.56;10361356;28;20045;-40
2024/01/22 17:17:07;;;;;;;9.17;1.93;;;;;;;17.67;49.50;97037.72;10364339;28;20056;-39
2024/01/22 17:22:09;;;;;;;5.73;1.30;;;;;;;17.64;49.46;97012.41;10362674;28;20307;-37
2024/01/22 17:27:09;;;;;;;5.90;1.10;;;;;;;17.62;47.53;96998.88;10362883;28;20261;-37
2024/01/22 17:32:10;;;;;;;5.63;1.13;;;;;;;17.47;47.53;96975.13;10363591;28;20046;-37
2024/01/22 17:37:12;;;;;;;0.97;0.50;;;;;;;17.07;48.02;97013.53;10354824;28;20789;-35
2024/01/22 17:42:13;;;;;;;2.95;0.88;;;;;;;17.20;48.83;97049.09;10353372;28;20384;-40
2024/01/22 17:47:15;;;;;;;4.75;1.35;;;;;;;17.37;47.72;97069.53;10361326;28;20091;-37
2024/01/22 17:52:15;;;;;;;1.77;0.93;;;;;;;17.31;49.02;97088.00;10352899;28;20044;-36
2024/01/22 17:57:15;;;;;;;3.50;1.07;;;;;;;17.35;49.00;97106.59;10359538;28;20498;-36
2024/01/22 18:02:16;;;;;;;8.03;1.20;;;;;;;17.40;48.77;97108.38;10357377;28;20456;-37
2024/01/22 18:07:16;;;;;;;4.20;1.13;;;;;;;17.38;48.98;97114.25;10359676;28;20034;-40
2024/01/22 18:12:17;;;;;;;3.90;0.83;;;;;;;17.42;48.74;97123.56;10357430;28;20293;-39
2024/01/22 18:17:17;;;;;;;2.15;0.90;;;;;;;17.44;48.01;97142.16;10360166;28;20048;-36
2024/01/22 18:22:18;;;;;;;6.03;2.27;;;;;;;17.43;48.45;97146.38;10357815;28;20026;-38
2024/01/22 18:27:18;;;;;;;2.80;1.10;;;;;;;17.48;47.56;97164.16;10358004;28;20079;-34
2024/01/22 18:32:18;;;;;;;7.20;1.10;;;;;;;17.59;46.05;97176.06;10360766;28;20037;-38
2024/01/22 18:37:19;;;;;;;8.00;1.40;;;;;;;17.66;45.40;97182.06;10359787;28;20026;-35
2024/01/22 18:42:20;;;;;;;2.05;1.00;;;;;;;17.70;45.48;97204.91;10359950;28;20037;-39
2024/01/22 18:47:20;;;;;;;4.85;1.17;;;;;;;17.71;45.47;97218.41;10358130;28;20030;-34
2024/01/22 18:52:21;;;;;;;3.03;1.00;;;;;;;17.72;45.46;97230.22;10356914;28;20038;-38
2024/01/22 18:57:21;;;;;;;4.07;1.83;;;;;;;17.73;45.72;97242.06;10360772;28;20042;-38
2024/01/22 19:02:22;;;;;;;3.00;1.17;;;;;;;17.73;46.75;97231.94;10354387;28;20310;-39
2024/01/22 19:07:22;;;;;;;4.05;1.38;;;;;;;17.75;45.27;97232.81;10359484;28;20300;-37
2024/01/22 19:12:22;;;;;;;6.72;2.10;;;;;;;17.75;45.69;97240.41;10351519;28;20112;-36
2024/01/22 19:17:23;;;;;;;7.50;2.37;;;;;;;17.76;45.78;97257.28;10354810;28;20048;-36
2024/01/22 19:22:24;;;;;;;6.20;1.50;;;;;;;17.76;45.56;97257.28;10353557;28;20301;-39
2024/01/22 19:27:24;;;;;;;4.40;1.73;;;;;;;17.74;45.82;97238.72;10355731;28;20092;-37
2024/01/22 19:32:24;;;;;;;5.55;1.10;;;;;;;17.76;45.45;97254.75;10356985;28;20034;-37
2024/01/22 19:37:25;;;;;;;4.53;1.57;;;;;;;17.77;45.47;97257.31;10356836;28;20034;-39
2024/01/22 19:42:25;;;;;;;3.72;1.48;;;;;;;17.80;46.01;97264.94;10354373;28;20498;-39
2024/01/22 19:47:28;;;;;;;2.88;0.93;;;;;;;17.78;45.94;97260.69;10358129;28;20038;-36
2024/01/22 19:52:28;;;;;;;4.47;1.23;;;;;;;17.76;46.01;97277.56;10357001;28;20049;-37
2024/01/22 19:57:31;;;;;;;7.53;1.02;;;;;;;17.73;48.10;97292.72;10357596;28;20121;-37
2024/01/22 20:02:31;;;;;;;4.28;1.75;;;;;;;17.74;48.21;97289.34;10363738;28;20033;-40
2024/01/22 20:07:32;;;;;;;4.73;1.30;;;;;;;17.69;47.00;97281.72;10366356;28;20045;-41
2024/01/22 20:12:33;;;;;;;7.00;1.48;;;;;;;17.75;46.86;97298.66;10361521;28;20034;-38
2024/01/22 20:17:33;;;;;;;4.45;1.27;;;;;;;17.80;46.13;97284.34;10357810;28;20071;-35
2024/01/22 20:22:34;;;;;;;4.80;2.97;;;;;;;17.80;46.03;97299.53;10365367;28;20036;-40
2024/01/22 20:27:34;;;;;;;4.30;1.23;;;;;;;17.86;46.37;97302.16;10363731;28;20095;-35
2024/01/22 20:32:34;;;;;;;8.47;2.03;;;;;;;17.78;46.86;97296.16;10364371;28;20081;-38
2024/01/22 20:37:35;;;;;;;9.30;2.00;;;;;;;17.83;47.68;97309.72;10361568;28;20037;-41
2024/01/22 20:42:35;;;;;;;8.95;2.35;;;;;;;17.82;47.39;97313.94;10360318;28;20030;-38
2024/01/22 20:47:36;;;;;;;7.18;1.85;;;;;;;17.83;47.67;97317.31;10366115;28;20033;-37
2024/01/22 20:52:36;;;;;;;6.73;1.50;;;;;;;17.83;47.58;97335.88;10364885;28;20402;-35
2024/01/22 20:57:37;;;;;;;5.87;1.53;;;;;;;17.81;47.46;97335.03;10362447;28;20293;-37
2024/01/22 21:02:38;;;;;;;3.08;1.33;;;;;;;17.82;47.26;97338.44;10364949;28;20026;-37
2024/01/22 21:07:39;;;;;;;3.67;1.48;;;;;;;17.84;47.06;97339.28;10362059;28;20033;-38
2024/01/22 21:12:39;;;;;;;4.60;1.42;;;;;;;17.84;47.55;97336.75;10361675;28;20108;-37
2024/01/22 21:17:40;;;;;;;3.60;1.13;;;;;;;17.81;47.13;97332.50;10363916;28;20524;-35
2024/01/22 21:22:41;;;;;;;5.47;1.50;;;;;;;17.83;47.23;97351.09;10362703;28;20808;-35
2024/01/22 21:27:41;;;;;;;3.80;1.30;;;;;;;17.81;47.18;97357.81;10364099;28;20038;-38
2024/01/22 21:32:41;;;;;;;6.97;1.33;;;;;;;17.82;47.17;97361.22;10392337;28;20049;-42
2024/01/22 21:37:42;;;;;;;7.07;1.27;;;;;;;17.82;47.04;97361.22;10363858;28;20291;-40
2024/01/22 21:42:46;;;;;;;3.63;1.27;;;;;;;17.82;47.17;97364.59;10362896;28;20030;-39
2024/01/22 21:47:46;;;;;;;4.10;0.98;;;;;;;17.82;47.17;97348.56;10364587;28;20740;-37
2024/01/22 21:52:47;;;;;;;4.57;1.42;;;;;;;17.82;46.94;97343.50;10363509;28;20038;-38
2024/01/22 21:57:47;;;;;;;3.73;1.57;;;;;;;17.78;46.73;97346.78;10363367;28;20075;-33
2024/01/22 22:02:47;;;;;;;2.03;0.90;;;;;;;17.79;46.56;97349.38;10363960;28;20800;-38
2024/01/22 22:07:48;;;;;;;3.73;1.20;;;;;;;17.78;46.73;97367.06;10363301;28;20417;-41
2024/01/22 22:12:48;;;;;;;2.70;1.17;;;;;;;17.79;46.59;97376.34;10362803;28;20296;-36
2024/01/22 22:17:48;;;;;;;4.30;1.87;;;;;;;17.78;46.81;97377.19;10363527;28;20645;-37
2024/01/22 22:22:50;;;;;;;1.93;1.03;;;;;;;17.78;46.79;97389.84;10361463;28;20785;-36
2024/01/22 22:27:50;;;;;;;2.95;1.02;;;;;;;17.79;47.04;97401.69;10362535;28;20121;-35
2024/01/22 22:32:51;;;;;;;2.80;1.20;;;;;;;17.80;47.60;97395.78;10363201;28;20086;-39
2024/01/22 22:37:52;;;;;;;4.65;1.05;;;;;;;17.76;47.26;97405.03;10362291;28;20280;-39
2024/01/22 22:42:52;;;;;;;3.80;1.00;;;;;;;17.79;46.65;97429.53;10361350;28;20752;-38
2024/01/22 22:47:52;;;;;;;6.27;1.50;;;;;;;17.80;46.77;97457.44;10362267;28;20033;-37
2024/01/22 22:52:55;;;;;;;2.03;0.98;;;;;;;17.80;46.87;97436.31;10361759;28;20178;-37
2024/01/22 22:57:56;;;;;;;4.53;1.40;;;;;;;17.80;46.67;97431.25;10361309;28;20057;-39
2024/01/22 23:02:58;;;;;;;3.45;1.10;;;;;;;17.80;47.00;97446.44;10361422;28;20037;-37
2024/01/22 23:07:58;;;;;;;3.28;0.95;;;;;;;17.80;46.92;97451.50;10360016;28;20038;-40
2024/01/22 23:12:58;;;;;;;4.13;1.23;;;;;;;17.80;46.89;97459.09;10360611;28;20092;-41
2024/01/22 23:17:59;;;;;;;2.90;1.33;;;;;;;17.80;47.21;97471.78;10361480;28;20034;-43